sensor_id;sensor_type;location;lat;lon;timestamp;pressure;altitude;pressure_sealevel;temperature;humidity
21980;BME280;11154;48.558;9.234;2023-03-20T00:01:42;97741.44;;;13.38;81.62
21980;BME280;11154;48.558;9.234;2023-03-20T00:03:44;97733.59;;;13.36;81.55
21980;BME280;11154;48.558;9.234;2023-03-20T00:05:46;97750.47;;;13.37;81.71
21980;BME280;11154;48.558;9.234;2023-03-20T00:07:48;97748.78;;;13.36;81.45
21980;BME280;11154;48.558;9.234;2023-03-20T00:09:51;97747.78;;;13.37;81.67
21980;BME280;11154;48.558;9.234;2023-03-20T00:11:54;97746.78;;;13.38;81.65
21980;BME280;11154;48.558;9.234;2023-03-20T00:13:57;97744.94;;;13.38;81.88
21980;BME280;11154;48.558;9.234;2023-03-20T00:15:59;97743.78;;;13.41;81.19
21980;BME280;11154;48.558;9.234;2023-03-20T00:18:02;97750.13;;;13.40;81.27
21980;BME280;11154;48.558;9.234;2023-03-20T00:20:04;97750.75;;;13.42;81.26
21980;BME280;11154;48.558;9.234;2023-03-20T00:22:07;97748.75;;;13.44;81.27
21980;BME280;11154;48.558;9.234;2023-03-20T00:24:09;97756.59;;;13.45;81.62
21980;BME280;11154;48.558;9.234;2023-03-20T00:26:13;97760.13;;;13.46;81.51
21980;BME280;11154;48.558;9.234;2023-03-20T00:28:28;97747.75;;;13.45;82.00
21980;BME280;11154;48.558;9.234;2023-03-20T00:30:31;97753.78;;;13.39;82.49
21980;BME280;11154;48.558;9.234;2023-03-20T00:32:33;97755.47;;;13.40;82.18
21980;BME280;11154;48.558;9.234;2023-03-20T00:34:35;97757.13;;;13.41;82.14
21980;BME280;11154;48.558;9.234;2023-03-20T00:36:36;97751.13;;;13.39;82.16
21980;BME280;11154;48.558;9.234;2023-03-20T00:38:38;97752.31;;;13.36;82.26
21980;BME280;11154;48.558;9.234;2023-03-20T00:40:39;97746.13;;;13.36;82.77
21980;BME280;11154;48.558;9.234;2023-03-20T00:42:44;97753.97;;;13.37;82.66
21980;BME280;11154;48.558;9.234;2023-03-20T00:44:48;97755.78;;;13.37;82.78
21980;BME280;11154;48.558;9.234;2023-03-20T00:46:53;97754.13;;;13.36;82.23
21980;BME280;11154;48.558;9.234;2023-03-20T00:48:55;97758.81;;;13.34;82.75
21980;BME280;11154;48.558;9.234;2023-03-20T00:50:57;97767.84;;;13.33;82.96
21980;BME280;11154;48.558;9.234;2023-03-20T00:52:59;97764.50;;;13.31;83.17
21980;BME280;11154;48.558;9.234;2023-03-20T00:55:00;97765.84;;;13.27;83.60
21980;BME280;11154;48.558;9.234;2023-03-20T00:57:05;97758.66;;;13.27;84.12
21980;BME280;11154;48.558;9.234;2023-03-20T00:59:15;97758.84;;;13.26;84.41
21980;BME280;11154;48.558;9.234;2023-03-20T01:01:18;97758.84;;;13.26;84.29
21980;BME280;11154;48.558;9.234;2023-03-20T01:03:21;97769.53;;;13.26;84.46
21980;BME280;11154;48.558;9.234;2023-03-20T01:05:24;97766.19;;;13.24;84.52
21980;BME280;11154;48.558;9.234;2023-03-20T01:07:26;97767.84;;;13.25;84.46
21980;BME280;11154;48.558;9.234;2023-03-20T01:09:28;97769.84;;;13.23;84.73
21980;BME280;11154;48.558;9.234;2023-03-20T01:11:30;97768.22;;;13.22;84.81
21980;BME280;11154;48.558;9.234;2023-03-20T01:13:32;97760.34;;;13.20;84.28
21980;BME280;11154;48.558;9.234;2023-03-20T01:15:35;97762.22;;;13.20;84.76
21980;BME280;11154;48.558;9.234;2023-03-20T01:17:37;97766.56;;;13.21;84.84
21980;BME280;11154;48.558;9.234;2023-03-20T01:19:39;97765.38;;;13.23;84.82
21980;BME280;11154;48.558;9.234;2023-03-20T01:21:40;97767.03;;;13.24;84.75
21980;BME280;11154;48.558;9.234;2023-03-20T01:23:42;97763.69;;;13.22;84.78
21980;BME280;11154;48.558;9.234;2023-03-20T01:25:44;97763.69;;;13.22;84.85
21980;BME280;11154;48.558;9.234;2023-03-20T01:27:49;97773.56;;;13.22;84.16
21980;BME280;11154;48.558;9.234;2023-03-20T01:29:51;97765.38;;;13.23;83.47
21980;BME280;11154;48.558;9.234;2023-03-20T01:31:54;97763.53;;;13.24;83.39
21980;BME280;11154;48.558;9.234;2023-03-20T01:33:55;97766.69;;;13.27;82.74
21980;BME280;11154;48.558;9.234;2023-03-20T01:35:57;97767.53;;;13.28;82.07
21980;BME280;11154;48.558;9.234;2023-03-20T01:37:58;97762.19;;;13.28;81.36
21980;BME280;11154;48.558;9.234;2023-03-20T01:40:00;97767.16;;;13.31;81.42
21980;BME280;11154;48.558;9.234;2023-03-20T01:42:02;97766.16;;;13.32;80.87
21980;BME280;11154;48.558;9.234;2023-03-20T01:44:17;97768.03;;;13.31;80.83
21980;BME280;11154;48.558;9.234;2023-03-20T01:46:23;97763.50;;;13.32;80.54
21980;BME280;11154;48.558;9.234;2023-03-20T01:48:35;97765.50;;;13.30;80.81
21980;BME280;11154;48.558;9.234;2023-03-20T01:50:56;97763.81;;;13.29;80.25
21980;BME280;11154;48.558;9.234;2023-03-20T01:53:02;97764.84;;;13.28;80.51
21980;BME280;11154;48.558;9.234;2023-03-20T01:55:05;97760.34;;;13.28;80.71
21980;BME280;11154;48.558;9.234;2023-03-20T01:57:09;97759.34;;;13.29;80.68
21980;BME280;11154;48.558;9.234;2023-03-20T01:59:16;97765.69;;;13.28;80.81
21980;BME280;11154;48.558;9.234;2023-03-20T02:01:19;97726.63;;;12.18;85.30
21980;BME280;11154;48.558;9.234;2023-03-20T02:03:22;97735.03;;;11.57;89.92
21980;BME280;11154;48.558;9.234;2023-03-20T02:05:25;97727.94;;;11.33;93.10
21980;BME280;11154;48.558;9.234;2023-03-20T02:07:28;97727.53;;;11.20;93.87
21980;BME280;11154;48.558;9.234;2023-03-20T02:09:30;97731.28;;;11.01;96.89
21980;BME280;11154;48.558;9.234;2023-03-20T02:11:31;97737.56;;;10.92;98.12
21980;BME280;11154;48.558;9.234;2023-03-20T02:13:34;97728.22;;;10.88;99.43
21980;BME280;11154;48.558;9.234;2023-03-20T02:15:53;97740.13;;;10.77;100.00
21980;BME280;11154;48.558;9.234;2023-03-20T02:17:55;97732.59;;;10.72;100.00
21980;BME280;11154;48.558;9.234;2023-03-20T02:20:06;97745.75;;;10.74;100.00
21980;BME280;11154;48.558;9.234;2023-03-20T02:25:46;97748.88;;;10.69;100.00
21980;BME280;11154;48.558;9.234;2023-03-20T02:30:40;97749.72;;;10.70;100.00
21980;BME280;11154;48.558;9.234;2023-03-20T02:35:39;97749.19;;;10.66;100.00
21980;BME280;11154;48.558;9.234;2023-03-20T02:38:06;97764.63;;;10.63;100.00
21980;BME280;11154;48.558;9.234;2023-03-20T02:40:16;97755.66;;;10.64;100.00
21980;BME280;11154;48.558;9.234;2023-03-20T02:42:28;97756.19;;;10.67;100.00
21980;BME280;11154;48.558;9.234;2023-03-20T02:44:39;97753.88;;;10.72;100.00
21980;BME280;11154;48.558;9.234;2023-03-20T02:46:50;97753.41;;;10.77;100.00
21980;BME280;11154;48.558;9.234;2023-03-20T02:48:56;97749.09;;;10.76;100.00
21980;BME280;11154;48.558;9.234;2023-03-20T02:51:01;97748.09;;;10.77;100.00
21980;BME280;11154;48.558;9.234;2023-03-20T02:53:14;97752.13;;;10.80;100.00
21980;BME280;11154;48.558;9.234;2023-03-20T02:55:27;97750.13;;;10.82;99.90
21980;BME280;11154;48.558;9.234;2023-03-20T02:57:40;97752.13;;;10.80;100.00
21980;BME280;11154;48.558;9.234;2023-03-20T02:59:47;97750.47;;;10.79;100.00
21980;BME280;11154;48.558;9.234;2023-03-20T03:01:58;97757.44;;;10.80;99.85
21980;BME280;11154;48.558;9.234;2023-03-20T03:04:08;97750.13;;;10.82;99.55
21980;BME280;11154;48.558;9.234;2023-03-20T03:06:16;97749.13;;;10.83;99.28
21980;BME280;11154;48.558;9.234;2023-03-20T03:08:23;97749.13;;;10.83;99.74
21980;BME280;11154;48.558;9.234;2023-03-20T03:10:28;97745.13;;;10.79;100.00
21980;BME280;11154;48.558;9.234;2023-03-20T03:12:34;97749.59;;;10.79;100.00
21980;BME280;11154;48.558;9.234;2023-03-20T03:14:41;97753.88;;;10.72;98.86
21980;BME280;11154;48.558;9.234;2023-03-20T03:16:45;97754.03;;;10.71;99.83
21980;BME280;11154;48.558;9.234;2023-03-20T03:18:50;97759.81;;;10.66;98.99
21980;BME280;11154;48.558;9.234;2023-03-20T03:20:56;97750.34;;;10.64;99.55
21980;BME280;11154;48.558;9.234;2023-03-20T03:22:59;97750.69;;;10.69;100.00
21980;BME280;11154;48.558;9.234;2023-03-20T03:25:03;97758.03;;;10.75;100.00
21980;BME280;11154;48.558;9.234;2023-03-20T03:27:12;97765.03;;;10.76;100.00
21980;BME280;11154;48.558;9.234;2023-03-20T03:29:17;97766.34;;;10.72;100.00
21980;BME280;11154;48.558;9.234;2023-03-20T03:31:20;97764.69;;;10.71;100.00
21980;BME280;11154;48.558;9.234;2023-03-20T03:33:26;97766.28;;;10.64;99.57
21980;BME280;11154;48.558;9.234;2023-03-20T03:35:28;97764.84;;;10.69;100.00
21980;BME280;11154;48.558;9.234;2023-03-20T03:37:39;97770.69;;;10.73;100.00
21980;BME280;11154;48.558;9.234;2023-03-20T03:39:48;97773.19;;;10.74;100.00
21980;BME280;11154;48.558;9.234;2023-03-20T03:41:57;97771.34;;;10.75;100.00
21980;BME280;11154;48.558;9.234;2023-03-20T03:44:11;97776.00;;;10.73;100.00
21980;BME280;11154;48.558;9.234;2023-03-20T03:46:19;97769.69;;;10.74;100.00
21980;BME280;11154;48.558;9.234;2023-03-20T03:48:27;97778.34;;;10.76;100.00
21980;BME280;11154;48.558;9.234;2023-03-20T03:50:35;97776.53;;;10.76;100.00
21980;BME280;11154;48.558;9.234;2023-03-20T03:52:40;97781.63;;;10.70;100.00
21980;BME280;11154;48.558;9.234;2023-03-20T03:54:46;97781.00;;;10.76;100.00
21980;BME280;11154;48.558;9.234;2023-03-20T03:56:50;97784.00;;;10.73;100.00
21980;BME280;11154;48.558;9.234;2023-03-20T03:58:56;97780.19;;;10.75;100.00
21980;BME280;11154;48.558;9.234;2023-03-20T04:01:01;97818.88;;;11.20;100.00
21980;BME280;11154;48.558;9.234;2023-03-20T04:03:05;97818.78;;;11.71;98.99
21980;BME280;11154;48.558;9.234;2023-03-20T04:05:08;97825.56;;;11.99;96.04
21980;BME280;11154;48.558;9.234;2023-03-20T04:07:12;97827.59;;;12.21;94.21
21980;BME280;11154;48.558;9.234;2023-03-20T04:09:14;97828.97;;;12.40;92.64
21980;BME280;11154;48.558;9.234;2023-03-20T04:11:16;97822.28;;;12.52;91.59
21980;BME280;11154;48.558;9.234;2023-03-20T04:13:19;97824.78;;;12.62;90.58
21980;BME280;11154;48.558;9.234;2023-03-20T04:15:22;97828.31;;;12.70;89.69
21980;BME280;11154;48.558;9.234;2023-03-20T04:17:23;97826.66;;;12.77;89.10
21980;BME280;11154;48.558;9.234;2023-03-20T04:19:25;97827.50;;;12.86;88.33
21980;BME280;11154;48.558;9.234;2023-03-20T04:21:27;97830.34;;;12.92;88.03
21980;BME280;11154;48.558;9.234;2023-03-20T04:23:28;97839.69;;;12.96;87.26
21980;BME280;11154;48.558;9.234;2023-03-20T04:25:30;97829.50;;;12.99;87.13
21980;BME280;11154;48.558;9.234;2023-03-20T04:27:32;97835.16;;;13.04;86.61
21980;BME280;11154;48.558;9.234;2023-03-20T04:29:33;97838.16;;;13.09;86.35
21980;BME280;11154;48.558;9.234;2023-03-20T04:31:37;97836.16;;;13.11;85.65
21980;BME280;11154;48.558;9.234;2023-03-20T04:33:38;97835.00;;;13.14;85.50
21980;BME280;11154;48.558;9.234;2023-03-20T04:35:41;97838.97;;;13.18;85.11
21980;BME280;11154;48.558;9.234;2023-03-20T04:37:42;97830.97;;;13.18;84.92
21980;BME280;11154;48.558;9.234;2023-03-20T04:39:44;97835.97;;;13.21;84.67
21980;BME280;11154;48.558;9.234;2023-03-20T04:41:45;97833.13;;;13.22;84.24
21980;BME280;11154;48.558;9.234;2023-03-20T04:43:47;97818.97;;;13.22;84.24
21980;BME280;11154;48.558;9.234;2023-03-20T04:45:49;97817.78;;;13.24;83.75
21980;BME280;11154;48.558;9.234;2023-03-20T04:47:52;97815.13;;;13.24;83.61
21980;BME280;11154;48.558;9.234;2023-03-20T04:49:53;97814.25;;;13.24;83.30
21980;BME280;11154;48.558;9.234;2023-03-20T04:51:55;97801.91;;;13.23;83.30
21980;BME280;11154;48.558;9.234;2023-03-20T04:53:56;97806.25;;;13.24;83.17
21980;BME280;11154;48.558;9.234;2023-03-20T04:55:58;97808.28;;;13.22;83.15
21980;BME280;11154;48.558;9.234;2023-03-20T04:58:00;97804.75;;;13.21;83.09
21980;BME280;11154;48.558;9.234;2023-03-20T05:00:02;97812.78;;;13.21;82.73
21980;BME280;11154;48.558;9.234;2023-03-20T05:02:04;97818.28;;;13.20;83.34
21980;BME280;11154;48.558;9.234;2023-03-20T05:04:07;97820.97;;;13.20;83.53
21980;BME280;11154;48.558;9.234;2023-03-20T05:06:09;97822.78;;;13.19;83.36
21980;BME280;11154;48.558;9.234;2023-03-20T05:08:11;97810.59;;;13.17;83.28
21980;BME280;11154;48.558;9.234;2023-03-20T05:10:12;97825.81;;;13.16;83.46
21980;BME280;11154;48.558;9.234;2023-03-20T05:12:14;97828.66;;;13.15;83.42
21980;BME280;11154;48.558;9.234;2023-03-20T05:14:16;97837.47;;;13.15;83.50
21980;BME280;11154;48.558;9.234;2023-03-20T05:16:18;97837.47;;;13.15;83.95
21980;BME280;11154;48.558;9.234;2023-03-20T05:18:19;97838.31;;;13.16;83.59
21980;BME280;11154;48.558;9.234;2023-03-20T05:20:22;97839.97;;;13.17;83.56
21980;BME280;11154;48.558;9.234;2023-03-20T05:22:24;97842.00;;;13.15;83.35
21980;BME280;11154;48.558;9.234;2023-03-20T05:24:25;97844.31;;;13.10;83.42
21980;BME280;11154;48.558;9.234;2023-03-20T05:26:28;97845.66;;;13.06;83.05
21980;BME280;11154;48.558;9.234;2023-03-20T05:28:30;97843.69;;;13.00;83.07
21980;BME280;11154;48.558;9.234;2023-03-20T05:30:31;97848.03;;;13.01;83.00
21980;BME280;11154;48.558;9.234;2023-03-20T05:32:33;97857.34;;;13.13;85.98
21980;BME280;11154;48.558;9.234;2023-03-20T05:34:36;97855.84;;;13.10;85.05
21980;BME280;11154;48.558;9.234;2023-03-20T05:36:39;97861.69;;;13.06;83.47
21980;BME280;11154;48.558;9.234;2023-03-20T05:38:41;97856.72;;;13.03;82.87
21980;BME280;11154;48.558;9.234;2023-03-20T05:40:42;97862.38;;;13.00;82.57
21980;BME280;11154;48.558;9.234;2023-03-20T05:42:44;97861.38;;;13.01;82.66
21980;BME280;11154;48.558;9.234;2023-03-20T05:44:46;97857.19;;;12.98;82.62
21980;BME280;11154;48.558;9.234;2023-03-20T05:46:47;97863.38;;;12.99;81.63
21980;BME280;11154;48.558;9.234;2023-03-20T05:48:49;97857.19;;;12.98;81.43
21980;BME280;11154;48.558;9.234;2023-03-20T05:50:50;97854.34;;;13.00;81.82
21980;BME280;11154;48.558;9.234;2023-03-20T05:52:54;97857.03;;;13.00;81.74
21980;BME280;11154;48.558;9.234;2023-03-20T05:54:55;97852.69;;;12.99;81.68
21980;BME280;11154;48.558;9.234;2023-03-20T05:56:57;97850.00;;;12.99;81.42
21980;BME280;11154;48.558;9.234;2023-03-20T05:58:59;97858.03;;;12.99;81.43
21980;BME280;11154;48.558;9.234;2023-03-20T06:01:00;97851.50;;;13.01;81.46
21980;BME280;11154;48.558;9.234;2023-03-20T06:03:02;97862.03;;;13.03;80.77
21980;BME280;11154;48.558;9.234;2023-03-20T06:05:06;97863.19;;;13.08;80.39
21980;BME280;11154;48.558;9.234;2023-03-20T06:07:08;97860.84;;;13.13;80.32
21980;BME280;11154;48.558;9.234;2023-03-20T06:09:11;97865.69;;;13.10;79.98
21980;BME280;11154;48.558;9.234;2023-03-20T06:11:12;97872.06;;;13.09;80.11
21980;BME280;11154;48.558;9.234;2023-03-20T06:13:15;97879.03;;;13.10;80.51
21980;BME280;11154;48.558;9.234;2023-03-20T06:15:16;97877.22;;;13.10;80.57
21980;BME280;11154;48.558;9.234;2023-03-20T06:17:18;97881.56;;;13.11;80.62
21980;BME280;11154;48.558;9.234;2023-03-20T06:19:20;97879.72;;;13.12;80.25
21980;BME280;11154;48.558;9.234;2023-03-20T06:21:22;97883.06;;;13.14;80.75
21980;BME280;11154;48.558;9.234;2023-03-20T06:23:23;97890.53;;;13.26;85.24
21980;BME280;11154;48.558;9.234;2023-03-20T06:25:26;97890.72;;;13.25;84.79
21980;BME280;11154;48.558;9.234;2023-03-20T06:27:28;97887.03;;;13.18;82.33
21980;BME280;11154;48.558;9.234;2023-03-20T06:29:30;97892.06;;;13.21;81.27
21980;BME280;11154;48.558;9.234;2023-03-20T06:31:32;97889.38;;;13.21;80.69
21980;BME280;11154;48.558;9.234;2023-03-20T06:33:33;97877.03;;;13.04;80.74
21980;BME280;11154;48.558;9.234;2023-03-20T06:35:35;97882.03;;;12.83;82.63
21980;BME280;11154;48.558;9.234;2023-03-20T06:37:37;97900.41;;;13.02;82.24
21980;BME280;11154;48.558;9.234;2023-03-20T06:39:38;97894.06;;;13.19;80.77
21980;BME280;11154;48.558;9.234;2023-03-20T06:41:42;97899.06;;;13.22;80.43
21980;BME280;11154;48.558;9.234;2023-03-20T06:43:43;97891.06;;;13.22;80.35
21980;BME280;11154;48.558;9.234;2023-03-20T06:45:45;97894.38;;;13.24;80.29
21980;BME280;11154;48.558;9.234;2023-03-20T06:47:47;97886.88;;;13.27;80.49
21980;BME280;11154;48.558;9.234;2023-03-20T06:49:49;97887.38;;;13.23;80.98
21980;BME280;11154;48.558;9.234;2023-03-20T06:51:51;97887.72;;;13.28;81.09
21980;BME280;11154;48.558;9.234;2023-03-20T06:53:53;97877.00;;;13.36;81.08
21980;BME280;11154;48.558;9.234;2023-03-20T06:55:54;97881.00;;;13.40;81.06
21980;BME280;11154;48.558;9.234;2023-03-20T06:57:58;97870.97;;;13.42;80.95
21980;BME280;11154;48.558;9.234;2023-03-20T06:59:59;97872.31;;;13.38;81.10
21980;BME280;11154;48.558;9.234;2023-03-20T07:02:01;97871.81;;;13.34;81.71
21980;BME280;11154;48.558;9.234;2023-03-20T07:04:03;97888.00;;;13.49;81.13
21980;BME280;11154;48.558;9.234;2023-03-20T07:06:05;97877.97;;;13.59;80.29
21980;BME280;11154;48.558;9.234;2023-03-20T07:08:07;97880.63;;;13.59;79.95
21980;BME280;11154;48.558;9.234;2023-03-20T07:10:10;97879.63;;;13.60;79.88
21980;BME280;11154;48.558;9.234;2023-03-20T07:12:14;97885.47;;;13.63;80.15
21980;BME280;11154;48.558;9.234;2023-03-20T07:14:20;97885.09;;;13.66;80.75
21980;BME280;11154;48.558;9.234;2023-03-20T07:16:22;97878.41;;;13.70;80.93
21980;BME280;11154;48.558;9.234;2023-03-20T07:18:24;97883.75;;;13.70;80.72
21980;BME280;11154;48.558;9.234;2023-03-20T07:20:26;97882.06;;;13.77;80.10
21980;BME280;11154;48.558;9.234;2023-03-20T07:22:29;97891.41;;;13.81;79.64
21980;BME280;11154;48.558;9.234;2023-03-20T07:24:31;97891.72;;;13.86;79.64
21980;BME280;11154;48.558;9.234;2023-03-20T07:26:33;97902.59;;;13.84;79.82
21980;BME280;11154;48.558;9.234;2023-03-20T07:28:35;97898.94;;;13.85;80.62
21980;BME280;11154;48.558;9.234;2023-03-20T07:30:38;97897.91;;;13.86;80.34
21980;BME280;11154;48.558;9.234;2023-03-20T07:32:40;97892.56;;;13.86;80.20
21980;BME280;11154;48.558;9.234;2023-03-20T07:34:42;97902.25;;;13.87;80.33
21980;BME280;11154;48.558;9.234;2023-03-20T07:36:43;97902.91;;;13.89;80.49
21980;BME280;11154;48.558;9.234;2023-03-20T07:38:45;97905.91;;;13.94;81.46
21980;BME280;11154;48.558;9.234;2023-03-20T07:40:46;97905.22;;;13.92;80.37
21980;BME280;11154;48.558;9.234;2023-03-20T07:42:49;97915.09;;;13.92;79.68
21980;BME280;11154;48.558;9.234;2023-03-20T07:44:51;97914.28;;;13.91;79.41
21980;BME280;11154;48.558;9.234;2023-03-20T07:46:54;97919.97;;;13.88;79.34
21980;BME280;11154;48.558;9.234;2023-03-20T07:48:56;97923.00;;;13.85;79.77
21980;BME280;11154;48.558;9.234;2023-03-20T07:50:57;97913.94;;;13.86;78.97
21980;BME280;11154;48.558;9.234;2023-03-20T07:52:59;97908.59;;;13.86;79.09
21980;BME280;11154;48.558;9.234;2023-03-20T07:55:00;97909.25;;;13.88;79.33
21980;BME280;11154;48.558;9.234;2023-03-20T07:57:02;97913.25;;;13.92;79.61
21980;BME280;11154;48.558;9.234;2023-03-20T07:59:04;97907.56;;;13.95;79.46
21980;BME280;11154;48.558;9.234;2023-03-20T08:01:06;97907.88;;;14.00;80.35
21980;BME280;11154;48.558;9.234;2023-03-20T08:03:09;97906.06;;;14.01;79.39
21980;BME280;11154;48.558;9.234;2023-03-20T08:05:11;97911.03;;;14.04;79.18
21980;BME280;11154;48.558;9.234;2023-03-20T08:07:12;97911.53;;;14.07;78.84
21980;BME280;11154;48.558;9.234;2023-03-20T08:09:14;97906.19;;;14.07;78.09
21980;BME280;11154;48.558;9.234;2023-03-20T08:11:16;97904.03;;;14.11;78.39
21980;BME280;11154;48.558;9.234;2023-03-20T08:13:18;97900.53;;;14.10;78.71
21980;BME280;11154;48.558;9.234;2023-03-20T08:15:20;97904.84;;;14.11;78.85
21980;BME280;11154;48.558;9.234;2023-03-20T08:17:21;97902.16;;;14.11;77.92
21980;BME280;11154;48.558;9.234;2023-03-20T08:19:24;97910.69;;;14.15;78.22
21980;BME280;11154;48.558;9.234;2023-03-20T08:21:28;97905.00;;;14.18;78.86
21980;BME280;11154;48.558;9.234;2023-03-20T08:23:29;97904.00;;;14.19;78.62
21980;BME280;11154;48.558;9.234;2023-03-20T08:25:31;97907.31;;;14.21;78.99
21980;BME280;11154;48.558;9.234;2023-03-20T08:27:33;97911.84;;;14.20;78.09
21980;BME280;11154;48.558;9.234;2023-03-20T08:29:35;97907.78;;;14.24;78.06
21980;BME280;11154;48.558;9.234;2023-03-20T08:31:37;97909.47;;;14.25;78.18
21980;BME280;11154;48.558;9.234;2023-03-20T08:33:38;97903.59;;;14.30;78.78
21980;BME280;11154;48.558;9.234;2023-03-20T08:35:41;97909.25;;;14.35;79.52
21980;BME280;11154;48.558;9.234;2023-03-20T08:37:44;97913.78;;;14.34;79.07
21980;BME280;11154;48.558;9.234;2023-03-20T08:39:45;97907.75;;;14.32;76.75
21980;BME280;11154;48.558;9.234;2023-03-20T08:41:48;97908.94;;;14.30;76.20
21980;BME280;11154;48.558;9.234;2023-03-20T08:43:49;97910.13;;;14.27;76.25
21980;BME280;11154;48.558;9.234;2023-03-20T08:45:51;97911.13;;;14.26;76.32
21980;BME280;11154;48.558;9.234;2023-03-20T08:47:53;97908.28;;;14.28;76.84
21980;BME280;11154;48.558;9.234;2023-03-20T08:49:55;97917.34;;;14.27;76.45
21980;BME280;11154;48.558;9.234;2023-03-20T08:51:58;97908.66;;;14.25;75.97
21980;BME280;11154;48.558;9.234;2023-03-20T08:54:00;97906.63;;;14.27;75.65
21980;BME280;11154;48.558;9.234;2023-03-20T08:56:02;97915.78;;;14.32;76.31
21980;BME280;11154;48.558;9.234;2023-03-20T08:58:04;97917.66;;;14.32;75.87
21980;BME280;11154;48.558;9.234;2023-03-20T09:00:08;97913.59;;;14.36;76.50
21980;BME280;11154;48.558;9.234;2023-03-20T09:02:11;97916.75;;;14.39;77.31
21980;BME280;11154;48.558;9.234;2023-03-20T09:04:12;97918.06;;;14.43;77.34
21980;BME280;11154;48.558;9.234;2023-03-20T09:06:14;97917.91;;;14.44;76.61
21980;BME280;11154;48.558;9.234;2023-03-20T09:08:17;97914.88;;;14.47;75.94
21980;BME280;11154;48.558;9.234;2023-03-20T09:10:19;97923.56;;;14.49;75.43
21980;BME280;11154;48.558;9.234;2023-03-20T09:12:20;97914.72;;;14.49;74.26
21980;BME280;11154;48.558;9.234;2023-03-20T09:14:22;97917.69;;;14.54;73.99
21980;BME280;11154;48.558;9.234;2023-03-20T09:16:24;97905.59;;;14.58;75.64
21980;BME280;11154;48.558;9.234;2023-03-20T09:18:26;97912.13;;;14.63;74.83
21980;BME280;11154;48.558;9.234;2023-03-20T09:20:27;97904.56;;;14.67;75.09
21980;BME280;11154;48.558;9.234;2023-03-20T09:22:29;97914.75;;;14.71;74.65
21980;BME280;11154;48.558;9.234;2023-03-20T09:24:32;97915.38;;;14.73;73.86
21980;BME280;11154;48.558;9.234;2023-03-20T09:26:34;97908.69;;;14.77;73.12
21980;BME280;11154;48.558;9.234;2023-03-20T09:28:36;97919.50;;;14.84;73.50
21980;BME280;11154;48.558;9.234;2023-03-20T09:30:38;97914.44;;;14.89;72.69
21980;BME280;11154;48.558;9.234;2023-03-20T09:32:40;97917.25;;;14.95;73.38
21980;BME280;11154;48.558;9.234;2023-03-20T09:34:42;97921.59;;;14.96;72.45
21980;BME280;11154;48.558;9.234;2023-03-20T09:36:43;97921.59;;;14.96;70.17
21980;BME280;11154;48.558;9.234;2023-03-20T09:38:47;97923.72;;;15.01;70.54
21980;BME280;11154;48.558;9.234;2023-03-20T09:40:52;97926.72;;;15.06;69.89
21980;BME280;11154;48.558;9.234;2023-03-20T09:43:01;97916.63;;;15.08;69.57
21980;BME280;11154;48.558;9.234;2023-03-20T09:45:10;97916.94;;;15.13;71.72
21980;BME280;11154;48.558;9.234;2023-03-20T09:47:18;97915.38;;;15.18;71.12
21980;BME280;11154;48.558;9.234;2023-03-20T09:49:34;97913.88;;;15.23;70.65
21980;BME280;11154;48.558;9.234;2023-03-20T09:51:43;97913.13;;;15.29;71.55
21980;BME280;11154;48.558;9.234;2023-03-20T09:53:52;97913.97;;;15.30;69.78
21980;BME280;11154;48.558;9.234;2023-03-20T09:55:57;97911.13;;;15.31;68.22
21980;BME280;11154;48.558;9.234;2023-03-20T09:58:05;97900.88;;;15.35;69.33
21980;BME280;11154;48.558;9.234;2023-03-20T10:00:12;97911.75;;;15.33;66.94
21980;BME280;11154;48.558;9.234;2023-03-20T10:02:19;97910.41;;;15.37;65.96
21980;BME280;11154;48.558;9.234;2023-03-20T10:04:25;97915.38;;;15.40;66.16
21980;BME280;11154;48.558;9.234;2023-03-20T10:06:28;97911.34;;;15.44;65.96
21980;BME280;11154;48.558;9.234;2023-03-20T10:08:33;97906.59;;;15.46;66.80
21980;BME280;11154;48.558;9.234;2023-03-20T10:10:41;97913.44;;;15.49;68.11
21980;BME280;11154;48.558;9.234;2023-03-20T10:12:57;97922.97;;;15.51;67.68
21980;BME280;11154;48.558;9.234;2023-03-20T10:15:09;97916.78;;;15.51;66.07
21980;BME280;11154;48.558;9.234;2023-03-20T10:17:26;97917.13;;;15.48;65.95
21980;BME280;11154;48.558;9.234;2023-03-20T10:19:34;97916.31;;;15.47;66.41
21980;BME280;11154;48.558;9.234;2023-03-20T10:21:41;97923.88;;;15.44;67.23
21980;BME280;11154;48.558;9.234;2023-03-20T10:23:49;97929.63;;;15.41;65.87
21980;BME280;11154;48.558;9.234;2023-03-20T10:25:58;97930.69;;;15.32;64.62
21980;BME280;11154;48.558;9.234;2023-03-20T10:28:04;97925.53;;;15.30;65.17
21980;BME280;11154;48.558;9.234;2023-03-20T10:30:21;97920.31;;;15.29;64.62
21980;BME280;11154;48.558;9.234;2023-03-20T10:32:29;97917.56;;;15.22;64.32
21980;BME280;11154;48.558;9.234;2023-03-20T10:34:55;97925.41;;;15.24;66.08
21980;BME280;11154;48.558;9.234;2023-03-20T10:37:08;97936.78;;;15.26;66.16
21980;BME280;11154;48.558;9.234;2023-03-20T10:39:18;97921.53;;;15.26;62.89
21980;BME280;11154;48.558;9.234;2023-03-20T10:41:27;97934.28;;;15.24;62.45
21980;BME280;11154;48.558;9.234;2023-03-20T10:43:34;97934.28;;;15.24;61.32
21980;BME280;11154;48.558;9.234;2023-03-20T10:45:39;97924.59;;;15.23;60.86
21980;BME280;11154;48.558;9.234;2023-03-20T10:47:43;97932.09;;;15.28;61.14
21980;BME280;11154;48.558;9.234;2023-03-20T10:49:48;97933.72;;;15.29;62.79
21980;BME280;11154;48.558;9.234;2023-03-20T10:51:55;97934.56;;;15.29;63.58
21980;BME280;11154;48.558;9.234;2023-03-20T10:54:00;97930.50;;;15.33;65.29
21980;BME280;11154;48.558;9.234;2023-03-20T10:56:05;97928.38;;;15.29;64.35
21980;BME280;11154;48.558;9.234;2023-03-20T10:58:14;97935.28;;;15.23;63.72
21980;BME280;11154;48.558;9.234;2023-03-20T11:00:21;97917.72;;;15.21;63.29
21980;BME280;11154;48.558;9.234;2023-03-20T11:02:26;97915.03;;;15.21;63.51
21980;BME280;11154;48.558;9.234;2023-03-20T11:04:28;97911.69;;;15.19;63.42
21980;BME280;11154;48.558;9.234;2023-03-20T11:06:31;97905.13;;;15.21;64.15